sensor_id;sensor_type;location;lat;lon;timestamp;pressure;altitude;pressure_sealevel;temperature;humidity
46127;BME280;31859;55.030;-1.550;2022-09-06T00:02:24;100496.57;;;16.08;100.00
46127;BME280;31859;55.030;-1.550;2022-09-06T00:04:56;100502.66;;;16.50;100.00
46127;BME280;31859;55.030;-1.550;2022-09-06T00:07:24;100504.83;;;15.90;100.00
46127;BME280;31859;55.030;-1.550;2022-09-06T00:09:51;100506.89;;;15.76;100.00
46127;BME280;31859;55.030;-1.550;2022-09-06T00:12:18;100504.21;;;16.35;100.00
46127;BME280;31859;55.030;-1.550;2022-09-06T00:14:45;100498.15;;;16.15;100.00
46127;BME280;31859;55.030;-1.550;2022-09-06T00:17:13;100495.89;;;16.82;100.00
46127;BME280;31859;55.030;-1.550;2022-09-06T00:19:39;100490.09;;;17.24;100.00
46127;BME280;31859;55.030;-1.550;2022-09-06T00:22:07;100485.61;;;17.42;100.00
46127;BME280;31859;55.030;-1.550;2022-09-06T00:24:34;100493.93;;;18.26;100.00
46127;BME280;31859;55.030;-1.550;2022-09-06T00:27:01;100495.05;;;17.59;100.00
46127;BME280;31859;55.030;-1.550;2022-09-06T00:29:29;100498.94;;;17.62;100.00
46127;BME280;31859;55.030;-1.550;2022-09-06T00:31:56;100508.76;;;17.81;100.00
46127;BME280;31859;55.030;-1.550;2022-09-06T00:34:24;100511.43;;;17.46;100.00
46127;BME280;31859;55.030;-1.550;2022-09-06T00:36:51;100516.94;;;17.25;100.00
46127;BME280;31859;55.030;-1.550;2022-09-06T00:39:19;100516.38;;;17.23;100.00
46127;BME280;31859;55.030;-1.550;2022-09-06T00:41:46;100522.53;;;16.12;100.00
46127;BME280;31859;55.030;-1.550;2022-09-06T00:44:13;100526.61;;;15.74;100.00
46127;BME280;31859;55.030;-1.550;2022-09-06T00:46:43;100533.99;;;16.10;100.00
46127;BME280;31859;55.030;-1.550;2022-09-06T00:49:19;100527.57;;;15.49;100.00
46127;BME280;31859;55.030;-1.550;2022-09-06T00:51:48;100538.74;;;15.71;100.00
46127;BME280;31859;55.030;-1.550;2022-09-06T00:54:16;100544.61;;;15.10;100.00
46127;BME280;31859;55.030;-1.550;2022-09-06T00:56:44;100539.76;;;14.62;100.00
46127;BME280;31859;55.030;-1.550;2022-09-06T00:59:12;100548.31;;;15.47;100.00
46127;BME280;31859;55.030;-1.550;2022-09-06T01:01:40;100542.15;;;15.70;100.00
46127;BME280;31859;55.030;-1.550;2022-09-06T01:04:07;100536.33;;;15.50;100.00
46127;BME280;31859;55.030;-1.550;2022-09-06T01:06:44;100541.04;;;15.20;100.00
46127;BME280;31859;55.030;-1.550;2022-09-06T01:09:24;100537.61;;;15.15;100.00
46127;BME280;31859;55.030;-1.550;2022-09-06T01:12:03;100545.16;;;14.76;100.00
46127;BME280;31859;55.030;-1.550;2022-09-06T01:14:44;100542.28;;;14.55;100.00
46127;BME280;31859;55.030;-1.550;2022-09-06T01:17:23;100541.86;;;15.10;100.00
46127;BME280;31859;55.030;-1.550;2022-09-06T01:20:44;100541.68;;;15.22;100.00
46127;BME280;31859;55.030;-1.550;2022-09-06T01:23:35;100527.52;;;14.86;100.00
46127;BME280;31859;55.030;-1.550;2022-09-06T01:26:19;100512.95;;;15.37;100.00
46127;BME280;31859;55.030;-1.550;2022-09-06T01:28:52;100503.78;;;14.79;100.00
46127;BME280;31859;55.030;-1.550;2022-09-06T01:31:26;100489.42;;;15.66;100.00
46127;BME280;31859;55.030;-1.550;2022-09-06T01:34:13;100476.30;;;15.64;100.00
46127;BME280;31859;55.030;-1.550;2022-09-06T01:36:47;100454.50;;;15.62;100.00
46127;BME280;31859;55.030;-1.550;2022-09-06T01:39:21;100456.04;;;15.52;100.00
46127;BME280;31859;55.030;-1.550;2022-09-06T01:41:50;100453.72;;;15.81;100.00
46127;BME280;31859;55.030;-1.550;2022-09-06T01:44:18;100446.51;;;15.37;100.00
46127;BME280;31859;55.030;-1.550;2022-09-06T01:46:52;100447.67;;;15.08;100.00
46127;BME280;31859;55.030;-1.550;2022-09-06T01:49:30;100450.62;;;15.30;100.00
46127;BME280;31859;55.030;-1.550;2022-09-06T01:52:08;100430.90;;;15.52;100.00
46127;BME280;31859;55.030;-1.550;2022-09-06T01:54:50;100415.09;;;15.74;100.00
46127;BME280;31859;55.030;-1.550;2022-09-06T01:57:33;100414.78;;;16.07;100.00
46127;BME280;31859;55.030;-1.550;2022-09-06T02:00:07;100397.73;;;15.82;100.00
46127;BME280;31859;55.030;-1.550;2022-09-06T02:02:44;100388.31;;;16.08;100.00
46127;BME280;31859;55.030;-1.550;2022-09-06T02:05:21;100376.73;;;16.59;100.00
46127;BME280;31859;55.030;-1.550;2022-09-06T02:07:53;100362.49;;;17.00;100.00
46127;BME280;31859;55.030;-1.550;2022-09-06T02:10:26;100356.07;;;17.05;100.00
46127;BME280;31859;55.030;-1.550;2022-09-06T02:12:58;100352.09;;;17.30;100.00
46127;BME280;31859;55.030;-1.550;2022-09-06T02:15:30;100346.37;;;17.18;100.00
46127;BME280;31859;55.030;-1.550;2022-09-06T02:18:02;100330.57;;;16.68;100.00
46127;BME280;31859;55.030;-1.550;2022-09-06T02:20:34;100329.65;;;17.06;100.00
46127;BME280;31859;55.030;-1.550;2022-09-06T02:23:05;100323.59;;;16.97;100.00
46127;BME280;31859;55.030;-1.550;2022-09-06T02:25:37;100321.15;;;16.95;100.00
46127;BME280;31859;55.030;-1.550;2022-09-06T02:28:06;100319.64;;;17.29;100.00
46127;BME280;31859;55.030;-1.550;2022-09-06T02:30:37;100311.24;;;16.80;100.00
46127;BME280;31859;55.030;-1.550;2022-09-06T02:33:10;100305.40;;;16.60;100.00
46127;BME280;31859;55.030;-1.550;2022-09-06T02:35:45;100314.64;;;16.47;100.00
46127;BME280;31859;55.030;-1.550;2022-09-06T02:38:13;100299.89;;;16.69;100.00
46127;BME280;31859;55.030;-1.550;2022-09-06T02:40:40;100305.33;;;16.58;100.00
46127;BME280;31859;55.030;-1.550;2022-09-06T02:43:08;100309.43;;;16.81;100.00
46127;BME280;31859;55.030;-1.550;2022-09-06T02:45:36;100315.31;;;17.01;100.00
46127;BME280;31859;55.030;-1.550;2022-09-06T02:48:03;100320.88;;;16.49;100.00
46127;BME280;31859;55.030;-1.550;2022-09-06T02:50:31;100314.46;;;16.64;100.00
46127;BME280;31859;55.030;-1.550;2022-09-06T02:53:06;100314.90;;;15.96;100.00
46127;BME280;31859;55.030;-1.550;2022-09-06T02:55:34;100318.64;;;15.65;100.00
46127;BME280;31859;55.030;-1.550;2022-09-06T02:58:02;100324.58;;;15.61;100.00
46127;BME280;31859;55.030;-1.550;2022-09-06T03:00:30;100332.53;;;15.19;100.00
46127;BME280;31859;55.030;-1.550;2022-09-06T03:02:57;100335.40;;;15.26;100.00
46127;BME280;31859;55.030;-1.550;2022-09-06T03:05:26;100331.96;;;15.38;100.00
46127;BME280;31859;55.030;-1.550;2022-09-06T03:07:55;100345.27;;;15.33;100.00
46127;BME280;31859;55.030;-1.550;2022-09-06T03:10:22;100336.23;;;15.45;100.00
46127;BME280;31859;55.030;-1.550;2022-09-06T03:12:50;100359.51;;;14.59;100.00
46127;BME280;31859;55.030;-1.550;2022-09-06T03:15:18;100359.52;;;14.62;100.00
46127;BME280;31859;55.030;-1.550;2022-09-06T03:17:45;100384.14;;;14.60;100.00
46127;BME280;31859;55.030;-1.550;2022-09-06T03:20:12;100380.59;;;14.69;100.00
46127;BME280;31859;55.030;-1.550;2022-09-06T03:22:40;100381.50;;;14.64;100.00
46127;BME280;31859;55.030;-1.550;2022-09-06T03:25:09;100385.52;;;14.27;100.00
46127;BME280;31859;55.030;-1.550;2022-09-06T03:27:36;100398.18;;;13.79;100.00
46127;BME280;31859;55.030;-1.550;2022-09-06T03:30:05;100405.01;;;13.40;100.00
46127;BME280;31859;55.030;-1.550;2022-09-06T03:32:32;100387.78;;;13.53;100.00
46127;BME280;31859;55.030;-1.550;2022-09-06T03:35:00;100386.93;;;13.66;100.00
46127;BME280;31859;55.030;-1.550;2022-09-06T03:37:27;100386.42;;;13.87;100.00
46127;BME280;31859;55.030;-1.550;2022-09-06T03:39:54;100381.57;;;14.12;100.00
46127;BME280;31859;55.030;-1.550;2022-09-06T03:42:21;100377.67;;;14.61;100.00
46127;BME280;31859;55.030;-1.550;2022-09-06T03:44:48;100371.83;;;14.20;100.00
46127;BME280;31859;55.030;-1.550;2022-09-06T03:47:16;100369.76;;;14.29;100.00
46127;BME280;31859;55.030;-1.550;2022-09-06T03:49:43;100375.79;;;13.80;100.00
46127;BME280;31859;55.030;-1.550;2022-09-06T03:52:10;100376.51;;;13.83;100.00
46127;BME280;31859;55.030;-1.550;2022-09-06T03:54:37;100373.27;;;14.04;100.00
46127;BME280;31859;55.030;-1.550;2022-09-06T03:57:05;100375.36;;;13.84;100.00
46127;BME280;31859;55.030;-1.550;2022-09-06T03:59:32;100368.65;;;13.99;100.00
46127;BME280;31859;55.030;-1.550;2022-09-06T04:01:59;100363.43;;;14.55;100.00
46127;BME280;31859;55.030;-1.550;2022-09-06T04:04:26;100363.98;;;14.56;100.00
46127;BME280;31859;55.030;-1.550;2022-09-06T04:06:54;100357.31;;;14.05;100.00
46127;BME280;31859;55.030;-1.550;2022-09-06T04:09:21;100350.15;;;15.06;100.00
46127;BME280;31859;55.030;-1.550;2022-09-06T04:11:48;100348.80;;;14.52;100.00
46127;BME280;31859;55.030;-1.550;2022-09-06T04:14:16;100351.05;;;14.39;100.00
46127;BME280;31859;55.030;-1.550;2022-09-06T04:16:43;100338.03;;;14.79;100.00
46127;BME280;31859;55.030;-1.550;2022-09-06T04:19:10;100330.65;;;15.05;100.00
46127;BME280;31859;55.030;-1.550;2022-09-06T04:21:37;100328.66;;;15.17;100.00
46127;BME280;31859;55.030;-1.550;2022-09-06T04:24:04;100331.31;;;15.18;100.00
46127;BME280;31859;55.030;-1.550;2022-09-06T04:26:32;100330.05;;;15.91;100.00
46127;BME280;31859;55.030;-1.550;2022-09-06T04:28:59;100330.10;;;15.72;100.00
46127;BME280;31859;55.030;-1.550;2022-09-06T04:31:27;100326.58;;;15.47;100.00
46127;BME280;31859;55.030;-1.550;2022-09-06T04:33:54;100328.41;;;15.68;100.00
46127;BME280;31859;55.030;-1.550;2022-09-06T04:36:21;100328.35;;;15.83;100.00
46127;BME280;31859;55.030;-1.550;2022-09-06T04:38:49;100330.72;;;16.13;100.00
46127;BME280;31859;55.030;-1.550;2022-09-06T04:41:16;100342.49;;;15.66;100.00
46127;BME280;31859;55.030;-1.550;2022-09-06T04:43:43;100361.22;;;14.61;100.00
46127;BME280;31859;55.030;-1.550;2022-09-06T04:46:18;100367.70;;;14.00;100.00
46127;BME280;31859;55.030;-1.550;2022-09-06T04:48:46;100368.54;;;13.92;100.00
46127;BME280;31859;55.030;-1.550;2022-09-06T04:51:13;100373.00;;;13.55;100.00
46127;BME280;31859;55.030;-1.550;2022-09-06T04:53:40;100373.74;;;14.43;100.00
46127;BME280;31859;55.030;-1.550;2022-09-06T04:56:12;100376.28;;;14.13;100.00
46127;BME280;31859;55.030;-1.550;2022-09-06T04:58:39;100363.13;;;14.47;100.00
46127;BME280;31859;55.030;-1.550;2022-09-06T05:01:06;100353.33;;;14.31;100.00
46127;BME280;31859;55.030;-1.550;2022-09-06T05:03:34;100348.78;;;14.58;100.00
46127;BME280;31859;55.030;-1.550;2022-09-06T05:06:04;100336.37;;;14.84;100.00
46127;BME280;31859;55.030;-1.550;2022-09-06T05:08:31;100326.60;;;15.71;100.00
46127;BME280;31859;55.030;-1.550;2022-09-06T05:10:59;100322.76;;;16.02;100.00
46127;BME280;31859;55.030;-1.550;2022-09-06T05:13:26;100318.08;;;16.02;100.00
46127;BME280;31859;55.030;-1.550;2022-09-06T05:15:53;100315.09;;;16.63;100.00
46127;BME280;31859;55.030;-1.550;2022-09-06T05:18:20;100314.04;;;16.84;100.00
46127;BME280;31859;55.030;-1.550;2022-09-06T05:20:50;100315.61;;;17.12;100.00
46127;BME280;31859;55.030;-1.550;2022-09-06T05:23:18;100321.72;;;16.83;100.00
46127;BME280;31859;55.030;-1.550;2022-09-06T05:25:45;100329.96;;;17.35;100.00
46127;BME280;31859;55.030;-1.550;2022-09-06T05:28:12;100328.01;;;16.68;100.00
46127;BME280;31859;55.030;-1.550;2022-09-06T05:30:40;100337.03;;;16.60;100.00
46127;BME280;31859;55.030;-1.550;2022-09-06T05:33:07;100341.89;;;16.31;100.00
46127;BME280;31859;55.030;-1.550;2022-09-06T05:35:35;100340.88;;;16.40;100.00
46127;BME280;31859;55.030;-1.550;2022-09-06T05:38:02;100342.01;;;16.15;100.00
46127;BME280;31859;55.030;-1.550;2022-09-06T05:40:29;100338.98;;;15.99;100.00
46127;BME280;31859;55.030;-1.550;2022-09-06T05:42:56;100341.80;;;16.33;100.00
46127;BME280;31859;55.030;-1.550;2022-09-06T05:45:23;100345.65;;;16.72;100.00
46127;BME280;31859;55.030;-1.550;2022-09-06T05:47:51;100348.84;;;16.18;100.00
46127;BME280;31859;55.030;-1.550;2022-09-06T05:50:18;100355.85;;;15.75;100.00
46127;BME280;31859;55.030;-1.550;2022-09-06T05:52:45;100361.33;;;15.22;100.00
46127;BME280;31859;55.030;-1.550;2022-09-06T05:55:12;100363.61;;;14.93;100.00
46127;BME280;31859;55.030;-1.550;2022-09-06T05:57:39;100365.32;;;14.96;100.00
46127;BME280;31859;55.030;-1.550;2022-09-06T06:00:07;100358.58;;;15.27;100.00
46127;BME280;31859;55.030;-1.550;2022-09-06T06:02:34;100349.60;;;15.42;100.00
46127;BME280;31859;55.030;-1.550;2022-09-06T06:05:02;100336.41;;;16.02;100.00
46127;BME280;31859;55.030;-1.550;2022-09-06T06:07:29;100332.07;;;15.89;100.00
46127;BME280;31859;55.030;-1.550;2022-09-06T06:09:56;100332.40;;;15.90;100.00
46127;BME280;31859;55.030;-1.550;2022-09-06T06:12:24;100340.36;;;15.28;100.00
46127;BME280;31859;55.030;-1.550;2022-09-06T06:14:51;100341.38;;;15.03;100.00
46127;BME280;31859;55.030;-1.550;2022-09-06T06:17:19;100339.80;;;15.17;100.00
46127;BME280;31859;55.030;-1.550;2022-09-06T06:19:46;100333.70;;;15.47;100.00
46127;BME280;31859;55.030;-1.550;2022-09-06T06:22:13;100334.50;;;16.23;100.00
46127;BME280;31859;55.030;-1.550;2022-09-06T06:24:41;100335.16;;;16.28;100.00
46127;BME280;31859;55.030;-1.550;2022-09-06T06:27:08;100328.79;;;17.08;100.00
46127;BME280;31859;55.030;-1.550;2022-09-06T06:29:35;100319.74;;;17.17;100.00
46127;BME280;31859;55.030;-1.550;2022-09-06T06:32:02;100314.67;;;17.11;100.00
46127;BME280;31859;55.030;-1.550;2022-09-06T06:34:29;100317.83;;;16.42;100.00
46127;BME280;31859;55.030;-1.550;2022-09-06T06:36:56;100320.60;;;16.76;100.00
46127;BME280;31859;55.030;-1.550;2022-09-06T06:39:24;100318.82;;;17.39;100.00
46127;BME280;31859;55.030;-1.550;2022-09-06T06:41:52;100320.80;;;17.13;100.00
46127;BME280;31859;55.030;-1.550;2022-09-06T06:44:19;100323.39;;;17.39;100.00
46127;BME280;31859;55.030;-1.550;2022-09-06T06:46:46;100323.76;;;17.48;100.00
46127;BME280;31859;55.030;-1.550;2022-09-06T06:49:14;100326.82;;;17.84;100.00
46127;BME280;31859;55.030;-1.550;2022-09-06T06:51:41;100322.98;;;18.06;100.00
46127;BME280;31859;55.030;-1.550;2022-09-06T06:54:08;100320.25;;;18.01;100.00
46127;BME280;31859;55.030;-1.550;2022-09-06T06:56:38;100322.65;;;18.08;100.00
46127;BME280;31859;55.030;-1.550;2022-09-06T06:59:06;100325.62;;;18.60;100.00
46127;BME280;31859;55.030;-1.550;2022-09-06T07:01:35;100331.43;;;18.13;100.00
46127;BME280;31859;55.030;-1.550;2022-09-06T07:04:03;100330.12;;;18.31;100.00
46127;BME280;31859;55.030;-1.550;2022-09-06T07:06:39;100330.78;;;18.00;100.00
46127;BME280;31859;55.030;-1.550;2022-09-06T07:09:11;100331.44;;;17.80;100.00
46127;BME280;31859;55.030;-1.550;2022-09-06T07:11:38;100333.21;;;17.89;100.00
46127;BME280;31859;55.030;-1.550;2022-09-06T07:14:06;100332.84;;;16.80;100.00
46127;BME280;31859;55.030;-1.550;2022-09-06T07:16:33;100331.27;;;17.10;100.00
46127;BME280;31859;55.030;-1.550;2022-09-06T07:19:00;100335.20;;;16.29;100.00
46127;BME280;31859;55.030;-1.550;2022-09-06T07:21:28;100339.38;;;16.16;100.00
46127;BME280;31859;55.030;-1.550;2022-09-06T07:23:55;100340.40;;;16.35;100.00
46127;BME280;31859;55.030;-1.550;2022-09-06T07:26:24;100339.85;;;16.10;100.00
46127;BME280;31859;55.030;-1.550;2022-09-06T07:28:52;100339.85;;;15.47;100.00
46127;BME280;31859;55.030;-1.550;2022-09-06T07:31:20;100338.99;;;15.63;100.00
46127;BME280;31859;55.030;-1.550;2022-09-06T07:33:47;100335.47;;;15.63;100.00
46127;BME280;31859;55.030;-1.550;2022-09-06T07:36:15;100328.17;;;15.63;100.00
46127;BME280;31859;55.030;-1.550;2022-09-06T07:38:47;100324.90;;;16.24;100.00
46127;BME280;31859;55.030;-1.550;2022-09-06T07:41:16;100320.32;;;16.09;100.00
46127;BME280;31859;55.030;-1.550;2022-09-06T07:43:45;100317.63;;;16.41;100.00
46127;BME280;31859;55.030;-1.550;2022-09-06T07:46:14;100310.76;;;17.33;100.00
46127;BME280;31859;55.030;-1.550;2022-09-06T07:48:43;100304.99;;;18.28;100.00
46127;BME280;31859;55.030;-1.550;2022-09-06T07:51:12;100304.38;;;18.43;100.00
46127;BME280;31859;55.030;-1.550;2022-09-06T07:53:41;100304.33;;;18.22;100.00
46127;BME280;31859;55.030;-1.550;2022-09-06T07:56:10;100301.58;;;19.36;100.00
46127;BME280;31859;55.030;-1.550;2022-09-06T07:58:38;100304.09;;;20.08;100.00
46127;BME280;31859;55.030;-1.550;2022-09-06T08:01:15;100307.97;;;20.17;100.00
46127;BME280;31859;55.030;-1.550;2022-09-06T08:03:44;100311.82;;;20.63;100.00
46127;BME280;31859;55.030;-1.550;2022-09-06T08:06:11;100310.59;;;20.70;100.00
46127;BME280;31859;55.030;-1.550;2022-09-06T08:08:38;100311.96;;;20.87;100.00
46127;BME280;31859;55.030;-1.550;2022-09-06T08:11:06;100311.70;;;20.97;100.00
46127;BME280;31859;55.030;-1.550;2022-09-06T08:13:33;100312.29;;;20.71;100.00
46127;BME280;31859;55.030;-1.550;2022-09-06T08:16:02;100311.09;;;20.48;100.00
46127;BME280;31859;55.030;-1.550;2022-09-06T08:18:30;100308.39;;;20.57;100.00
46127;BME280;31859;55.030;-1.550;2022-09-06T08:21:05;100292.03;;;20.96;100.00
46127;BME280;31859;55.030;-1.550;2022-09-06T08:23:32;100289.28;;;20.57;100.00
46127;BME280;31859;55.030;-1.550;2022-09-06T08:25:59;100291.45;;;21.06;100.00
46127;BME280;31859;55.030;-1.550;2022-09-06T08:28:26;100295.13;;;21.16;100.00
46127;BME280;31859;55.030;-1.550;2022-09-06T08:30:54;100296.51;;;21.27;100.00
46127;BME280;31859;55.030;-1.550;2022-09-06T08:33:21;100290.33;;;20.40;100.00
46127;BME280;31859;55.030;-1.550;2022-09-06T08:35:54;100288.27;;;20.04;100.00
46127;BME280;31859;55.030;-1.550;2022-09-06T08:38:21;100283.81;;;20.47;100.00
46127;BME280;31859;55.030;-1.550;2022-09-06T08:40:49;100279.89;;;20.90;100.00
46127;BME280;31859;55.030;-1.550;2022-09-06T08:43:18;100280.90;;;20.50;100.00
46127;BME280;31859;55.030;-1.550;2022-09-06T08:45:49;100284.55;;;20.46;100.00
46127;BME280;31859;55.030;-1.550;2022-09-06T08:48:18;100287.42;;;20.82;100.00
46127;BME280;31859;55.030;-1.550;2022-09-06T08:50:53;100289.79;;;21.01;100.00
46127;BME280;31859;55.030;-1.550;2022-09-06T08:53:26;100287.90;;;20.73;100.00
46127;BME280;31859;55.030;-1.550;2022-09-06T08:55:58;100287.41;;;19.91;100.00
46127;BME280;31859;55.030;-1.550;2022-09-06T08:58:37;100282.23;;;19.86;100.00
46127;BME280;31859;55.030;-1.550;2022-09-06T09:01:12;100277.55;;;19.44;100.00
46127;BME280;31859;55.030;-1.550;2022-09-06T09:03:42;100264.92;;;19.29;100.00
46127;BME280;31859;55.030;-1.550;2022-09-06T09:06:10;100259.62;;;19.98;100.00
46127;BME280;31859;55.030;-1.550;2022-09-06T09:08:42;100257.19;;;20.30;100.00
46127;BME280;31859;55.030;-1.550;2022-09-06T09:11:15;100255.66;;;20.71;100.00
46127;BME280;31859;55.030;-1.550;2022-09-06T09:13:50;100269.17;;;21.02;100.00
46127;BME280;31859;55.030;-1.550;2022-09-06T09:16:19;100267.14;;;19.49;100.00
46127;BME280;31859;55.030;-1.550;2022-09-06T09:18:50;100259.81;;;19.34;100.00
46127;BME280;31859;55.030;-1.550;2022-09-06T09:21:24;100257.15;;;19.74;100.00
46127;BME280;31859;55.030;-1.550;2022-09-06T09:23:53;100254.78;;;20.01;100.00
46127;BME280;31859;55.030;-1.550;2022-09-06T09:26:23;100248.23;;;19.50;100.00
46127;BME280;31859;55.030;-1.550;2022-09-06T09:29:09;100247.10;;;19.22;100.00
46127;BME280;31859;55.030;-1.550;2022-09-06T09:31:39;100244.96;;;19.11;100.00
46127;BME280;31859;55.030;-1.550;2022-09-06T09:34:11;100240.34;;;18.08;100.00
46127;BME280;31859;55.030;-1.550;2022-09-06T09:36:39;100240.52;;;17.88;100.00
46127;BME280;31859;55.030;-1.550;2022-09-06T09:39:09;100241.06;;;17.54;100.00
46127;BME280;31859;55.030;-1.550;2022-09-06T09:41:39;100229.58;;;18.14;100.00
46127;BME280;31859;55.030;-1.550;2022-09-06T09:44:10;100217.47;;;18.79;100.00
46127;BME280;31859;55.030;-1.550;2022-09-06T09:46:42;100216.72;;;19.56;100.00
46127;BME280;31859;55.030;-1.550;2022-09-06T09:49:11;100216.93;;;19.21;100.00
46127;BME280;31859;55.030;-1.550;2022-09-06T09:51:40;100217.01;;;19.11;100.00
46127;BME280;31859;55.030;-1.550;2022-09-06T09:54:08;100222.49;;;19.23;100.00
46127;BME280;31859;55.030;-1.550;2022-09-06T09:56:43;100222.09;;;18.94;100.00
46127;BME280;31859;55.030;-1.550;2022-09-06T09:59:19;100220.73;;;19.36;100.00
46127;BME280;31859;55.030;-1.550;2022-09-06T10:01:47;100220.01;;;19.28;100.00
46127;BME280;31859;55.030;-1.550;2022-09-06T10:04:19;100211.01;;;19.00;100.00
46127;BME280;31859;55.030;-1.550;2022-09-06T10:06:48;100200.09;;;18.80;100.00
46127;BME280;31859;55.030;-1.550;2022-09-06T10:09:18;100194.48;;;19.64;100.00
46127;BME280;31859;55.030;-1.550;2022-09-06T10:11:52;100187.09;;;20.26;100.00
46127;BME280;31859;55.030;-1.550;2022-09-06T10:14:30;100184.00;;;19.92;100.00
46127;BME280;31859;55.030;-1.550;2022-09-06T10:16:59;100180.11;;;20.36;100.00
46127;BME280;31859;55.030;-1.550;2022-09-06T10:19:38;100178.78;;;19.79;100.00
46127;BME280;31859;55.030;-1.550;2022-09-06T10:22:14;100171.83;;;19.28;100.00
46127;BME280;31859;55.030;-1.550;2022-09-06T10:24:55;100170.87;;;19.08;100.00
46127;BME280;31859;55.030;-1.550;2022-09-06T10:27:26;100170.76;;;20.82;100.00
46127;BME280;31859;55.030;-1.550;2022-09-06T10:29:59;100168.96;;;20.39;100.00
46127;BME280;31859;55.030;-1.550;2022-09-06T10:32:39;100168.29;;;20.87;100.00
46127;BME280;31859;55.030;-1.550;2022-09-06T10:35:15;100167.39;;;19.88;100.00
46127;BME280;31859;55.030;-1.550;2022-09-06T10:37:52;100162.67;;;19.54;100.00
46127;BME280;31859;55.030;-1.550;2022-09-06T10:40:30;100161.62;;;18.86;100.00
46127;BME280;31859;55.030;-1.550;2022-09-06T10:43:00;100172.84;;;18.53;100.00
46127;BME280;31859;55.030;-1.550;2022-09-06T10:45:37;100169.31;;;18.37;100.00
46127;BME280;31859;55.030;-1.550;2022-09-06T10:48:15;100170.08;;;18.35;100.00
46127;BME280;31859;55.030;-1.550;2022-09-06T10:50:49;100164.66;;;18.55;100.00
46127;BME280;31859;55.030;-1.550;2022-09-06T10:53:29;100171.03;;;18.17;100.00
46127;BME280;31859;55.030;-1.550;2022-09-06T10:56:04;100172.28;;;18.01;100.00
46127;BME280;31859;55.030;-1.550;2022-09-06T10:58:40;100179.79;;;17.14;100.00
46127;BME280;31859;55.030;-1.550;2022-09-06T11:01:18;100167.36;;;18.48;100.00
46127;BME280;31859;55.030;-1.550;2022-09-06T11:03:47;100167.79;;;18.14;100.00
46127;BME280;31859;55.030;-1.550;2022-09-06T11:06:19;100170.34;;;17.70;100.00
46127;BME280;31859;55.030;-1.550;2022-09-06T11:08:52;100162.82;;;18.46;100.00
46127;BME280;31859;55.030;-1.550;2022-09-06T11:11:25;100156.84;;;19.11;100.00
46127;BME280;31859;55.030;-1.550;2022-09-06T11:13:54;100153.16;;;19.60;100.00
46127;BME280;31859;55.030;-1.550;2022-09-06T11:16:26;100154.40;;;21.43;100.00
46127;BME280;31859;55.030;-1.550;2022-09-06T11:18:57;100158.74;;;22.08;100.00
46127;BME280;31859;55.030;-1.550;2022-09-06T11:21:43;100164.20;;;21.99;100.00
46127;BME280;31859;55.030;-1.550;2022-09-06T11:24:15;100144.68;;;21.23;100.00
46127;BME280;31859;55.030;-1.550;2022-09-06T11:26:59;100139.21;;;21.56;100.00
46127;BME280;31859;55.030;-1.550;2022-09-06T11:29:31;100136.72;;;20.57;100.00
46127;BME280;31859;55.030;-1.550;2022-09-06T11:32:01;100133.27;;;20.30;100.00
46127;BME280;31859;55.030;-1.550;2022-09-06T11:34:32;100127.32;;;19.32;100.00
46127;BME280;31859;55.030;-1.550;2022-09-06T11:37:01;100122.89;;;19.70;100.00
46127;BME280;31859;55.030;-1.550;2022-09-06T11:39:32;100117.73;;;19.36;100.00
46127;BME280;31859;55.030;-1.550;2022-09-06T11:42:01;100114.06;;;20.01;100.00
46127;BME280;31859;55.030;-1.550;2022-09-06T11:46:59;100109.32;;;21.80;100.00
46127;BME280;31859;55.030;-1.550;2022-09-06T11:49:30;100106.79;;;21.04;100.00
46127;BME280;31859;55.030;-1.550;2022-09-06T11:51:58;100105.39;;;20.44;100.00
46127;BME280;31859;55.030;-1.550;2022-09-06T11:54:34;100105.56;;;20.14;100.00
46127;BME280;31859;55.030;-1.550;2022-09-06T11:57:12;100117.68;;;19.83;100.00
46127;BME280;31859;55.030;-1.550;2022-09-06T11:59:51;100112.02;;;18.95;100.00
46127;BME280;31859;55.030;-1.550;2022-09-06T12:02:37;100119.84;;;18.35;100.00
46127;BME280;31859;55.030;-1.550;2022-09-06T12:05:10;100121.73;;;17.91;100.00
46127;BME280;31859;55.030;-1.550;2022-09-06T12:08:12;100128.95;;;17.31;100.00
46127;BME280;31859;55.030;-1.550;2022-09-06T12:10:57;100141.47;;;17.13;100.00
46127;BME280;31859;55.030;-1.550;2022-09-06T12:13:35;100146.06;;;16.52;100.00
46127;BME280;31859;55.030;-1.550;2022-09-06T12:16:05;100152.00;;;16.37;100.00
46127;BME280;31859;55.030;-1.550;2022-09-06T12:19:05;100151.37;;;16.41;100.00
46127;BME280;31859;55.030;-1.550;2022-09-06T12:21:37;100151.01;;;15.82;100.00
46127;BME280;31859;55.030;-1.550;2022-09-06T12:24:06;100157.84;;;15.75;100.00
46127;BME280;31859;55.030;-1.550;2022-09-06T12:26:51;100173.88;;;15.22;100.00
46127;BME280;31859;55.030;-1.550;2022-09-06T12:29:23;100168.45;;;15.19;100.00
46127;BME280;31859;55.030;-1.550;2022-09-06T12:31:53;100176.22;;;14.89;100.00
46127;BME280;31859;55.030;-1.550;2022-09-06T12:34:23;100177.55;;;14.84;100.00
46127;BME280;31859;55.030;-1.550;2022-09-06T12:36:54;100181.78;;;14.84;100.00
46127;BME280;31859;55.030;-1.550;2022-09-06T12:39:22;100184.41;;;14.37;100.00
46127;BME280;31859;55.030;-1.550;2022-09-06T12:41:51;100188.51;;;14.59;100.00
46127;BME280;31859;55.030;-1.550;2022-09-06T12:44:28;100186.59;;;14.47;100.00
46127;BME280;31859;55.030;-1.550;2022-09-06T12:47:03;100189.04;;;14.35;100.00
46127;BME280;31859;55.030;-1.550;2022-09-06T12:49:31;100180.87;;;14.54;100.00
46127;BME280;31859;55.030;-1.550;2022-09-06T12:52:08;100181.39;;;14.49;100.00